ADDS METAR Data INFO
IDs: Format: Raw Decoded Include TAF

Data at: 1749 UTC 21 Sep 2017

KBPI 211653Z AUTO VRB04KT 10SM BKN070 BKN090 09/04 A2979 RMK AO2 SLP026 T00890044
KBPI 211553Z AUTO 13003KT 10SM OVC070 05/03 A2979 RMK AO2 SLP040 T00500028
KBPI 211453Z AUTO 00000KT 10SM FEW070 04/03 A2979 RMK AO2 SLP039 T00390033 50005
KBPI 211353Z AUTO 32004KT 10SM BKN090 01/00 A2979 RMK AO2 SLP046 T00060000
KBPI 211343Z AUTO 32004KT 3SM BR SCT090 01/00 A2979 RMK AO2 T00060000
KBPI 211335Z AUTO 00000KT 1 3/4SM BR SCT090 00/00 A2978 RMK AO2 T00000000
KBPI 211253Z AUTO 36003KT 10SM CLR 00/M01 A2978 RMK AO2 SLP042 T00001006
KBPI 211153Z AUTO 10003KT 10SM SCT120 02/01 A2977 RMK AO2 SLP029 T00170006 10067 20017 51006
KBPI 211053Z AUTO 05003KT 10SM SCT060 BKN120 03/02 A2976 RMK AO2 SLP021 T00330017
KBPI 210953Z AUTO 05005KT 10SM BKN060 OVC075 04/02 A2976 RMK AO2 SLP018 T00390022
KBPI 210853Z AUTO 34008KT 10SM BKN070 BKN120 04/02 A2975 RMK AO2 SLP012 T00440022 56010
KBPI 210753Z AUTO 33010KT 10SM CLR 04/02 A2977 RMK AO2 SLP023 T00440022
KBPI 210653Z AUTO 04009KT 10SM FEW100 06/02 A2976 RMK AO2 SLP016 T00560022 401441039
KBPI 210553Z AUTO 04010KT 10SM OVC080 07/02 A2978 RMK AO2 RAB0456E11 SLP031 P0000 60000 T00670022 10128 20067 58012
KBPI 210453Z AUTO 00000KT 10SM SCT042 OVC055 08/02 A2983 RMK AO2 RAB32E47 SLP047 P0000 T00830017
KBPI 210353Z AUTO 03006KT 10SM OVC070 08/02 A2981 RMK AO2 SLP048 T00830017
KBPI 210253Z AUTO 32009KT 10SM OVC080 09/01 A2983 RMK AO2 SLP056 T00940006 56013
KBPI 210153Z AUTO 00000KT 10SM OVC080 11/M02 A2984 RMK AO2 SLP068 T01061017
KBPI 210053Z AUTO 26006KT 10SM CLR 11/M01 A2986 RMK AO2 SLP079 T01061011
KBPI 202353Z AUTO 27014G23KT 10SM FEW070 13/M02 A2987 RMK AO2 SLP076 T01281022 10144 20089 56007
KBPI 202253Z AUTO 27011KT 10SM CLR 13/M03 A2988 RMK AO2 SLP077 T01281033
KBPI 202153Z AUTO 25018G27KT 10SM FEW065 13/M03 A2989 RMK AO2 PK WND 28027/2149 SLP080 T01331033
KBPI 202053Z AUTO 28016G23KT 10SM FEW065 13/M02 A2990 RMK AO2 PK WND 28026/2041 SLP082 T01331022 58017
KBPI 201953Z AUTO 25016G24KT 10SM CLR 12/M03 A2993 RMK AO2 PK WND 28031/1855 SLP096 T01221028
KBPI 201853Z AUTO 26021G29KT 10SM CLR 12/M03 A2995 RMK AO2 PK WND 28029/1853 WSHFT 1740 SLP097 T01171028
KBPI 201800Z AUTO 25018G25KT 10SM BKN060 11/M03 A2996 RMK AO2 WSHFT 1740 T01061028
KBPI 201753Z AUTO 25017G24KT 10SM BKN060 09/M04 A2996 RMK AO2 WSHFT 1735 SLP112 T00891039 10094 21039 58006
KBPI 201653Z AUTO 20013KT 10SM SCT060 07/M03 A2997 RMK AO2 SLP122 T00671028
KBPI 201553Z AUTO 18011KT 10SM FEW060 04/M01 A2998 RMK AO2 SLP134 T00441006
KBPI 201453Z AUTO 18005KT 10SM BKN065 03/M01 A2998 RMK AO2 SLP138 T00281011 51001
KBPI 201353Z AUTO 00000KT 10SM CLR M02/M03 A2998 RMK AO2 SLP150 T10171033
KBPI 201253Z AUTO 12004KT 10SM CLR M03/M05 A2998 RMK AO2 SLP148 T10331050
KBPI 201153Z AUTO 00000KT 10SM CLR M02/M04 A2998 RMK AO2 SLP133 70008 T10171044 10017 21033 53002
KBPI 201053Z AUTO 19008KT 10SM CLR M02/M04 A2997 RMK AO2 SLP127 T10171044
KBPI 200953Z AUTO 12005KT 10SM CLR M02/M05 A2996 RMK AO2 SLP136 T10221050
KBPI 200853Z AUTO 00000KT 10SM CLR M01/M04 A2997 RMK AO2 SLP120 T10111044 50001
KBPI 200753Z AUTO 17004KT 10SM CLR M01/M05 A2997 RMK AO2 SLP120 T10111050
KBPI 200653Z AUTO 32007KT 10SM CLR 01/M05 A2996 RMK AO2 SLP121 T00111050 400941017
KBPI 200553Z AUTO 32004KT 10SM CLR 00/M05 A2997 RMK AO2 SLP121 T00001050 10061 21017 58002